sensor_id;sensor_type;location;lat;lon;timestamp;P1;durP1;ratioP1;P2;durP2;ratioP2
28007;SDS011;15333;50.010;20.020;2022-09-09T00:02:45;35.92;;;25.80;;
28007;SDS011;15333;50.010;20.020;2022-09-09T00:05:56;35.20;;;25.88;;
28007;SDS011;15333;50.010;20.020;2022-09-09T00:09:12;34.58;;;24.92;;
28007;SDS011;15333;50.010;20.020;2022-09-09T00:12:27;34.17;;;26.30;;
28007;SDS011;15333;50.010;20.020;2022-09-09T00:19:19;31.77;;;23.10;;
28007;SDS011;15333;50.010;20.020;2022-09-09T00:22:29;31.13;;;23.83;;
28007;SDS011;15333;50.010;20.020;2022-09-09T00:25:42;35.70;;;25.63;;
28007;SDS011;15333;50.010;20.020;2022-09-09T00:32:13;35.47;;;26.15;;
28007;SDS011;15333;50.010;20.020;2022-09-09T00:35:28;34.72;;;23.80;;
28007;SDS011;15333;50.010;20.020;2022-09-09T00:38:35;31.80;;;24.13;;
28007;SDS011;15333;50.010;20.020;2022-09-09T00:41:51;36.38;;;25.27;;
28007;SDS011;15333;50.010;20.020;2022-09-09T00:45:23;34.40;;;25.05;;
28007;SDS011;15333;50.010;20.020;2022-09-09T00:55:47;33.22;;;24.83;;
28007;SDS011;15333;50.010;20.020;2022-09-09T01:15:10;33.25;;;24.52;;
28007;SDS011;15333;50.010;20.020;2022-09-09T01:18:23;34.90;;;25.00;;
28007;SDS011;15333;50.010;20.020;2022-09-09T01:21:49;28.63;;;22.35;;
28007;SDS011;15333;50.010;20.020;2022-09-09T01:25:11;30.40;;;21.92;;
28007;SDS011;15333;50.010;20.020;2022-09-09T01:28:38;30.38;;;21.52;;
28007;SDS011;15333;50.010;20.020;2022-09-09T01:31:52;25.85;;;20.98;;
28007;SDS011;15333;50.010;20.020;2022-09-09T01:34:56;25.67;;;20.10;;
28007;SDS011;15333;50.010;20.020;2022-09-09T01:37:58;25.02;;;18.48;;
28007;SDS011;15333;50.010;20.020;2022-09-09T01:40:59;23.35;;;18.42;;
28007;SDS011;15333;50.010;20.020;2022-09-09T01:44:08;23.10;;;17.73;;
28007;SDS011;15333;50.010;20.020;2022-09-09T01:47:12;22.27;;;18.27;;
28007;SDS011;15333;50.010;20.020;2022-09-09T01:50:33;24.55;;;18.08;;
28007;SDS011;15333;50.010;20.020;2022-09-09T01:53:34;22.67;;;17.80;;
28007;SDS011;15333;50.010;20.020;2022-09-09T01:56:40;25.25;;;17.80;;
28007;SDS011;15333;50.010;20.020;2022-09-09T02:06:34;23.63;;;18.10;;
28007;SDS011;15333;50.010;20.020;2022-09-09T02:09:52;24.42;;;18.27;;
28007;SDS011;15333;50.010;20.020;2022-09-09T02:13:04;24.85;;;17.90;;
28007;SDS011;15333;50.010;20.020;2022-09-09T02:19:54;28.42;;;19.25;;
28007;SDS011;15333;50.010;20.020;2022-09-09T02:23:11;28.05;;;20.25;;
28007;SDS011;15333;50.010;20.020;2022-09-09T02:26:15;30.40;;;21.73;;
28007;SDS011;15333;50.010;20.020;2022-09-09T02:29:27;30.23;;;20.85;;
28007;SDS011;15333;50.010;20.020;2022-09-09T02:32:32;32.67;;;22.33;;
28007;SDS011;15333;50.010;20.020;2022-09-09T02:35:38;32.90;;;22.42;;
28007;SDS011;15333;50.010;20.020;2022-09-09T02:38:42;30.58;;;21.33;;
28007;SDS011;15333;50.010;20.020;2022-09-09T02:44:53;30.20;;;22.17;;
28007;SDS011;15333;50.010;20.020;2022-09-09T02:47:57;35.63;;;23.83;;
28007;SDS011;15333;50.010;20.020;2022-09-09T02:51:09;36.63;;;23.75;;
28007;SDS011;15333;50.010;20.020;2022-09-09T02:57:31;40.92;;;24.40;;
28007;SDS011;15333;50.010;20.020;2022-09-09T03:00:35;36.28;;;24.80;;
28007;SDS011;15333;50.010;20.020;2022-09-09T03:03:40;41.80;;;25.92;;
28007;SDS011;15333;50.010;20.020;2022-09-09T03:06:46;37.08;;;25.58;;
28007;SDS011;15333;50.010;20.020;2022-09-09T03:09:53;39.25;;;25.42;;
28007;SDS011;15333;50.010;20.020;2022-09-09T03:12:58;44.85;;;27.00;;
28007;SDS011;15333;50.010;20.020;2022-09-09T03:16:01;39.03;;;26.02;;
28007;SDS011;15333;50.010;20.020;2022-09-09T03:19:07;40.17;;;26.33;;
28007;SDS011;15333;50.010;20.020;2022-09-09T03:22:09;40.78;;;25.40;;
28007;SDS011;15333;50.010;20.020;2022-09-09T03:25:13;41.25;;;25.58;;
28007;SDS011;15333;50.010;20.020;2022-09-09T03:28:13;41.67;;;24.73;;
28007;SDS011;15333;50.010;20.020;2022-09-09T03:31:16;41.67;;;26.20;;
28007;SDS011;15333;50.010;20.020;2022-09-09T03:34:19;41.70;;;26.52;;
28007;SDS011;15333;50.010;20.020;2022-09-09T03:37:20;40.15;;;25.38;;
28007;SDS011;15333;50.010;20.020;2022-09-09T03:40:22;38.60;;;24.67;;
28007;SDS011;15333;50.010;20.020;2022-09-09T03:43:24;35.90;;;24.23;;
28007;SDS011;15333;50.010;20.020;2022-09-09T03:46:27;35.63;;;23.20;;
28007;SDS011;15333;50.010;20.020;2022-09-09T03:49:29;37.95;;;23.08;;
28007;SDS011;15333;50.010;20.020;2022-09-09T03:52:30;32.22;;;23.23;;
28007;SDS011;15333;50.010;20.020;2022-09-09T03:55:32;36.60;;;23.85;;
28007;SDS011;15333;50.010;20.020;2022-09-09T03:58:33;40.33;;;23.58;;
28007;SDS011;15333;50.010;20.020;2022-09-09T04:01:39;39.33;;;24.88;;
28007;SDS011;15333;50.010;20.020;2022-09-09T04:04:41;37.63;;;25.30;;
28007;SDS011;15333;50.010;20.020;2022-09-09T04:07:41;41.05;;;25.50;;
28007;SDS011;15333;50.010;20.020;2022-09-09T04:10:44;44.78;;;27.60;;
28007;SDS011;15333;50.010;20.020;2022-09-09T04:13:47;48.10;;;28.35;;
28007;SDS011;15333;50.010;20.020;2022-09-09T04:16:49;43.28;;;27.83;;
28007;SDS011;15333;50.010;20.020;2022-09-09T04:19:50;47.47;;;29.83;;
28007;SDS011;15333;50.010;20.020;2022-09-09T04:22:52;56.20;;;31.13;;
28007;SDS011;15333;50.010;20.020;2022-09-09T04:25:53;52.78;;;31.80;;
28007;SDS011;15333;50.010;20.020;2022-09-09T04:28:55;56.13;;;31.63;;
28007;SDS011;15333;50.010;20.020;2022-09-09T04:31:58;56.72;;;31.75;;
28007;SDS011;15333;50.010;20.020;2022-09-09T04:34:59;55.53;;;31.27;;
28007;SDS011;15333;50.010;20.020;2022-09-09T04:38:01;55.58;;;30.75;;
28007;SDS011;15333;50.010;20.020;2022-09-09T04:41:05;44.70;;;28.50;;
28007;SDS011;15333;50.010;20.020;2022-09-09T04:44:09;41.90;;;27.02;;
28007;SDS011;15333;50.010;20.020;2022-09-09T04:47:10;37.75;;;24.95;;
28007;SDS011;15333;50.010;20.020;2022-09-09T04:50:11;40.40;;;27.05;;
28007;SDS011;15333;50.010;20.020;2022-09-09T04:53:12;39.65;;;26.05;;
28007;SDS011;15333;50.010;20.020;2022-09-09T04:56:14;36.20;;;24.13;;
28007;SDS011;15333;50.010;20.020;2022-09-09T04:59:22;25.75;;;19.73;;
28007;SDS011;15333;50.010;20.020;2022-09-09T05:02:27;25.35;;;17.98;;
28007;SDS011;15333;50.010;20.020;2022-09-09T05:05:29;27.33;;;17.25;;
28007;SDS011;15333;50.010;20.020;2022-09-09T05:08:30;27.30;;;18.45;;
28007;SDS011;15333;50.010;20.020;2022-09-09T05:11:32;24.98;;;19.55;;
28007;SDS011;15333;50.010;20.020;2022-09-09T05:14:44;32.38;;;21.08;;
28007;SDS011;15333;50.010;20.020;2022-09-09T05:17:45;29.85;;;20.98;;
28007;SDS011;15333;50.010;20.020;2022-09-09T05:20:46;30.55;;;22.15;;
28007;SDS011;15333;50.010;20.020;2022-09-09T05:23:47;30.15;;;20.95;;
28007;SDS011;15333;50.010;20.020;2022-09-09T05:26:48;30.60;;;20.77;;
28007;SDS011;15333;50.010;20.020;2022-09-09T05:29:49;32.75;;;19.98;;
28007;SDS011;15333;50.010;20.020;2022-09-09T05:32:50;28.13;;;19.75;;
28007;SDS011;15333;50.010;20.020;2022-09-09T05:36:02;29.48;;;20.25;;
28007;SDS011;15333;50.010;20.020;2022-09-09T05:39:11;29.70;;;20.73;;
28007;SDS011;15333;50.010;20.020;2022-09-09T05:42:12;28.65;;;20.30;;
28007;SDS011;15333;50.010;20.020;2022-09-09T05:45:13;26.95;;;19.50;;
28007;SDS011;15333;50.010;20.020;2022-09-09T05:48:14;27.63;;;19.85;;
28007;SDS011;15333;50.010;20.020;2022-09-09T05:51:17;26.83;;;19.27;;
28007;SDS011;15333;50.010;20.020;2022-09-09T05:54:21;27.83;;;19.48;;
28007;SDS011;15333;50.010;20.020;2022-09-09T05:57:25;27.88;;;19.58;;
28007;SDS011;15333;50.010;20.020;2022-09-09T06:00:26;25.75;;;18.35;;
28007;SDS011;15333;50.010;20.020;2022-09-09T06:03:27;31.15;;;19.25;;
28007;SDS011;15333;50.010;20.020;2022-09-09T06:06:32;26.38;;;17.75;;
28007;SDS011;15333;50.010;20.020;2022-09-09T06:09:38;24.08;;;18.27;;
28007;SDS011;15333;50.010;20.020;2022-09-09T06:12:41;25.98;;;18.77;;
28007;SDS011;15333;50.010;20.020;2022-09-09T06:15:51;22.75;;;17.65;;
28007;SDS011;15333;50.010;20.020;2022-09-09T06:18:53;20.48;;;16.73;;
28007;SDS011;15333;50.010;20.020;2022-09-09T06:21:56;20.30;;;15.23;;
28007;SDS011;15333;50.010;20.020;2022-09-09T06:24:57;17.63;;;13.00;;
28007;SDS011;15333;50.010;20.020;2022-09-09T06:27:58;15.38;;;12.20;;
28007;SDS011;15333;50.010;20.020;2022-09-09T06:30:59;13.68;;;11.70;;
28007;SDS011;15333;50.010;20.020;2022-09-09T06:34:03;14.07;;;11.65;;
28007;SDS011;15333;50.010;20.020;2022-09-09T06:37:06;16.75;;;11.45;;
28007;SDS011;15333;50.010;20.020;2022-09-09T06:40:14;13.13;;;11.20;;
28007;SDS011;15333;50.010;20.020;2022-09-09T06:43:16;12.23;;;9.73;;
28007;SDS011;15333;50.010;20.020;2022-09-09T06:46:32;13.43;;;10.48;;
28007;SDS011;15333;50.010;20.020;2022-09-09T06:49:35;13.05;;;10.90;;
28007;SDS011;15333;50.010;20.020;2022-09-09T06:52:39;12.82;;;11.05;;
28007;SDS011;15333;50.010;20.020;2022-09-09T06:55:42;15.10;;;10.65;;
28007;SDS011;15333;50.010;20.020;2022-09-09T06:58:46;19.00;;;11.55;;
28007;SDS011;15333;50.010;20.020;2022-09-09T07:01:54;14.45;;;11.23;;
28007;SDS011;15333;50.010;20.020;2022-09-09T07:04:56;18.30;;;11.23;;
28007;SDS011;15333;50.010;20.020;2022-09-09T07:07:59;15.32;;;11.57;;
28007;SDS011;15333;50.010;20.020;2022-09-09T07:11:04;13.30;;;10.70;;
28007;SDS011;15333;50.010;20.020;2022-09-09T07:14:09;14.95;;;9.77;;
28007;SDS011;15333;50.010;20.020;2022-09-09T07:17:16;12.52;;;10.73;;
28007;SDS011;15333;50.010;20.020;2022-09-09T07:20:17;15.27;;;10.18;;
28007;SDS011;15333;50.010;20.020;2022-09-09T07:23:18;15.13;;;9.85;;
28007;SDS011;15333;50.010;20.020;2022-09-09T07:26:20;16.25;;;9.05;;
28007;SDS011;15333;50.010;20.020;2022-09-09T07:29:23;11.43;;;8.35;;
28007;SDS011;15333;50.010;20.020;2022-09-09T07:32:25;10.82;;;8.50;;
28007;SDS011;15333;50.010;20.020;2022-09-09T07:35:31;8.60;;;6.47;;
28007;SDS011;15333;50.010;20.020;2022-09-09T07:38:31;12.15;;;7.72;;
28007;SDS011;15333;50.010;20.020;2022-09-09T07:41:34;8.90;;;7.03;;
28007;SDS011;15333;50.010;20.020;2022-09-09T07:44:38;10.77;;;7.65;;
28007;SDS011;15333;50.010;20.020;2022-09-09T07:47:46;8.82;;;7.47;;
28007;SDS011;15333;50.010;20.020;2022-09-09T07:50:49;8.43;;;7.18;;
28007;SDS011;15333;50.010;20.020;2022-09-09T07:53:54;10.23;;;6.90;;
28007;SDS011;15333;50.010;20.020;2022-09-09T07:56:58;12.85;;;7.55;;
28007;SDS011;15333;50.010;20.020;2022-09-09T08:00:02;7.68;;;6.43;;
28007;SDS011;15333;50.010;20.020;2022-09-09T08:03:12;7.93;;;5.95;;
28007;SDS011;15333;50.010;20.020;2022-09-09T08:06:13;10.70;;;5.45;;
28007;SDS011;15333;50.010;20.020;2022-09-09T08:09:14;8.32;;;6.00;;
28007;SDS011;15333;50.010;20.020;2022-09-09T08:12:16;13.45;;;6.00;;
28007;SDS011;15333;50.010;20.020;2022-09-09T08:15:19;8.65;;;5.25;;
28007;SDS011;15333;50.010;20.020;2022-09-09T08:18:20;9.07;;;4.55;;
28007;SDS011;15333;50.010;20.020;2022-09-09T08:21:22;4.57;;;3.80;;
28007;SDS011;15333;50.010;20.020;2022-09-09T08:24:25;5.93;;;3.85;;
28007;SDS011;15333;50.010;20.020;2022-09-09T08:27:26;8.65;;;4.07;;
28007;SDS011;15333;50.010;20.020;2022-09-09T08:30:28;6.13;;;4.32;;
28007;SDS011;15333;50.010;20.020;2022-09-09T08:33:30;11.98;;;3.67;;
28007;SDS011;15333;50.010;20.020;2022-09-09T08:36:32;5.03;;;4.18;;
28007;SDS011;15333;50.010;20.020;2022-09-09T08:39:38;8.02;;;4.20;;
28007;SDS011;15333;50.010;20.020;2022-09-09T08:42:43;4.88;;;3.70;;
28007;SDS011;15333;50.010;20.020;2022-09-09T08:45:52;5.57;;;3.95;;
28007;SDS011;15333;50.010;20.020;2022-09-09T08:49:23;5.85;;;4.28;;
28007;SDS011;15333;50.010;20.020;2022-09-09T08:55:57;9.82;;;3.80;;
28007;SDS011;15333;50.010;20.020;2022-09-09T08:59:22;4.55;;;3.35;;
28007;SDS011;15333;50.010;20.020;2022-09-09T09:06:13;6.32;;;3.15;;
28007;SDS011;15333;50.010;20.020;2022-09-09T09:12:25;4.65;;;2.17;;
28007;SDS011;15333;50.010;20.020;2022-09-09T09:15:33;3.75;;;2.50;;
28007;SDS011;15333;50.010;20.020;2022-09-09T09:18:38;4.13;;;2.08;;
28007;SDS011;15333;50.010;20.020;2022-09-09T09:21:42;6.70;;;3.10;;
28007;SDS011;15333;50.010;20.020;2022-09-09T09:28:40;5.68;;;3.10;;
28007;SDS011;15333;50.010;20.020;2022-09-09T09:31:48;4.88;;;2.67;;
28007;SDS011;15333;50.010;20.020;2022-09-09T09:34:56;3.53;;;2.53;;
28007;SDS011;15333;50.010;20.020;2022-09-09T09:37:58;6.07;;;3.20;;
28007;SDS011;15333;50.010;20.020;2022-09-09T09:41:02;4.00;;;2.00;;
28007;SDS011;15333;50.010;20.020;2022-09-09T09:44:05;6.57;;;2.40;;
28007;SDS011;15333;50.010;20.020;2022-09-09T09:47:22;2.20;;;1.95;;
28007;SDS011;15333;50.010;20.020;2022-09-09T09:51:07;3.95;;;2.55;;
28007;SDS011;15333;50.010;20.020;2022-09-09T09:57:31;3.58;;;2.60;;
28007;SDS011;15333;50.010;20.020;2022-09-09T10:00:37;3.97;;;2.53;;
28007;SDS011;15333;50.010;20.020;2022-09-09T10:03:53;4.10;;;2.60;;
28007;SDS011;15333;50.010;20.020;2022-09-09T10:06:58;6.28;;;3.97;;
28007;SDS011;15333;50.010;20.020;2022-09-09T10:09:58;3.63;;;2.30;;
28007;SDS011;15333;50.010;20.020;2022-09-09T10:13:02;4.38;;;2.58;;
28007;SDS011;15333;50.010;20.020;2022-09-09T10:19:34;3.70;;;2.60;;
28007;SDS011;15333;50.010;20.020;2022-09-09T10:22:36;2.72;;;2.50;;
28007;SDS011;15333;50.010;20.020;2022-09-09T10:33:01;4.05;;;2.70;;
28007;SDS011;15333;50.010;20.020;2022-09-09T10:35:35;2.53;;;2.33;;
28007;SDS011;15333;50.010;20.020;2022-09-09T10:39:06;4.65;;;2.50;;
28007;SDS011;15333;50.010;20.020;2022-09-09T10:42:14;2.67;;;2.28;;
28007;SDS011;15333;50.010;20.020;2022-09-09T10:45:18;4.63;;;2.63;;
28007;SDS011;15333;50.010;20.020;2022-09-09T10:48:50;2.63;;;2.20;;
28007;SDS011;15333;50.010;20.020;2022-09-09T10:55:17;2.65;;;2.20;;
28007;SDS011;15333;50.010;20.020;2022-09-09T10:58:22;3.60;;;2.00;;
28007;SDS011;15333;50.010;20.020;2022-09-09T11:07:56;2.25;;;2.00;;
28007;SDS011;15333;50.010;20.020;2022-09-09T11:14:09;6.25;;;2.53;;
28007;SDS011;15333;50.010;20.020;2022-09-09T11:17:21;4.57;;;2.30;;
28007;SDS011;15333;50.010;20.020;2022-09-09T11:20:27;2.67;;;2.05;;
28007;SDS011;15333;50.010;20.020;2022-09-09T11:27:02;3.10;;;2.05;;
28007;SDS011;15333;50.010;20.020;2022-09-09T11:30:25;1.90;;;1.73;;
28007;SDS011;15333;50.010;20.020;2022-09-09T11:33:41;1.77;;;1.65;;
28007;SDS011;15333;50.010;20.020;2022-09-09T11:37:33;3.97;;;1.90;;
28007;SDS011;15333;50.010;20.020;2022-09-09T11:40:28;3.20;;;1.88;;
28007;SDS011;15333;50.010;20.020;2022-09-09T11:43:31;1.80;;;1.70;;
28007;SDS011;15333;50.010;20.020;2022-09-09T11:46:44;2.65;;;1.95;;
28007;SDS011;15333;50.010;20.020;2022-09-09T11:49:51;3.50;;;2.15;;
28007;SDS011;15333;50.010;20.020;2022-09-09T11:53:02;3.03;;;1.83;;
28007;SDS011;15333;50.010;20.020;2022-09-09T11:56:06;3.17;;;1.50;;
28007;SDS011;15333;50.010;20.020;2022-09-09T11:59:20;2.10;;;1.63;;
28007;SDS011;15333;50.010;20.020;2022-09-09T12:02:26;48.53;;;33.15;;
28007;SDS011;15333;50.010;20.020;2022-09-09T12:05:40;3.92;;;1.65;;
28007;SDS011;15333;50.010;20.020;2022-09-09T12:08:46;3.28;;;1.90;;
28007;SDS011;15333;50.010;20.020;2022-09-09T12:11:53;3.22;;;1.58;;
28007;SDS011;15333;50.010;20.020;2022-09-09T12:18:07;4.80;;;2.05;;
28007;SDS011;15333;50.010;20.020;2022-09-09T12:21:21;3.45;;;1.95;;
28007;SDS011;15333;50.010;20.020;2022-09-09T12:24:37;2.22;;;1.40;;
28007;SDS011;15333;50.010;20.020;2022-09-09T12:27:58;1.45;;;1.10;;
28007;SDS011;15333;50.010;20.020;2022-09-09T12:31:12;1.85;;;1.60;;
28007;SDS011;15333;50.010;20.020;2022-09-09T12:34:35;8.23;;;1.50;;
28007;SDS011;15333;50.010;20.020;2022-09-09T12:40:41;1.55;;;1.40;;
28007;SDS011;15333;50.010;20.020;2022-09-09T12:43:41;3.72;;;1.65;;
28007;SDS011;15333;50.010;20.020;2022-09-09T12:46:43;2.90;;;1.42;;
28007;SDS011;15333;50.010;20.020;2022-09-09T12:49:46;3.65;;;1.90;;
28007;SDS011;15333;50.010;20.020;2022-09-09T12:52:50;3.88;;;1.80;;
28007;SDS011;15333;50.010;20.020;2022-09-09T12:55:58;2.25;;;1.83;;
28007;SDS011;15333;50.010;20.020;2022-09-09T12:59:01;1.73;;;1.63;;
28007;SDS011;15333;50.010;20.020;2022-09-09T13:02:09;4.57;;;2.55;;
28007;SDS011;15333;50.010;20.020;2022-09-09T13:05:19;2.85;;;1.90;;
28007;SDS011;15333;50.010;20.020;2022-09-09T13:08:22;2.63;;;1.73;;
28007;SDS011;15333;50.010;20.020;2022-09-09T13:14:48;2.88;;;2.40;;
28007;SDS011;15333;50.010;20.020;2022-09-09T13:18:01;4.82;;;2.22;;
28007;SDS011;15333;50.010;20.020;2022-09-09T13:21:06;2.35;;;2.10;;
28007;SDS011;15333;50.010;20.020;2022-09-09T13:27:39;3.85;;;1.98;;
28007;SDS011;15333;50.010;20.020;2022-09-09T13:30:42;4.43;;;2.10;;
28007;SDS011;15333;50.010;20.020;2022-09-09T13:33:44;6.03;;;2.72;;
28007;SDS011;15333;50.010;20.020;2022-09-09T13:36:46;2.70;;;1.98;;
28007;SDS011;15333;50.010;20.020;2022-09-09T13:39:52;2.20;;;2.00;;
28007;SDS011;15333;50.010;20.020;2022-09-09T13:42:55;2.45;;;1.90;;
28007;SDS011;15333;50.010;20.020;2022-09-09T13:45:59;2.13;;;1.85;;
28007;SDS011;15333;50.010;20.020;2022-09-09T13:52:13;2.20;;;2.00;;
28007;SDS011;15333;50.010;20.020;2022-09-09T13:55:17;4.78;;;1.88;;
28007;SDS011;15333;50.010;20.020;2022-09-09T13:58:19;3.25;;;1.90;;
28007;SDS011;15333;50.010;20.020;2022-09-09T14:01:20;3.13;;;1.73;;
28007;SDS011;15333;50.010;20.020;2022-09-09T14:04:21;2.13;;;1.98;;
28007;SDS011;15333;50.010;20.020;2022-09-09T14:07:22;3.22;;;2.17;;
28007;SDS011;15333;50.010;20.020;2022-09-09T14:10:23;4.05;;;1.88;;
28007;SDS011;15333;50.010;20.020;2022-09-09T14:13:24;3.80;;;1.92;;
28007;SDS011;15333;50.010;20.020;2022-09-09T14:16:25;2.35;;;1.90;;
28007;SDS011;15333;50.010;20.020;2022-09-09T14:19:27;2.00;;;1.80;;
28007;SDS011;15333;50.010;20.020;2022-09-09T14:22:27;2.65;;;1.73;;
28007;SDS011;15333;50.010;20.020;2022-09-09T14:25:29;1.90;;;1.80;;
28007;SDS011;15333;50.010;20.020;2022-09-09T14:28:29;2.45;;;1.70;;
28007;SDS011;15333;50.010;20.020;2022-09-09T14:31:30;5.03;;;1.60;;
28007;SDS011;15333;50.010;20.020;2022-09-09T14:34:31;2.70;;;1.77;;
28007;SDS011;15333;50.010;20.020;2022-09-09T14:37:35;1.98;;;1.70;;
28007;SDS011;15333;50.010;20.020;2022-09-09T14:40:36;2.60;;;1.52;;
28007;SDS011;15333;50.010;20.020;2022-09-09T14:43:38;1.60;;;1.50;;
28007;SDS011;15333;50.010;20.020;2022-09-09T14:46:40;4.43;;;3.63;;
28007;SDS011;15333;50.010;20.020;2022-09-09T14:49:43;2.75;;;2.28;;
28007;SDS011;15333;50.010;20.020;2022-09-09T14:52:43;2.45;;;1.77;;
28007;SDS011;15333;50.010;20.020;2022-09-09T14:55:44;3.33;;;2.05;;
28007;SDS011;15333;50.010;20.020;2022-09-09T14:58:47;2.08;;;1.83;;
28007;SDS011;15333;50.010;20.020;2022-09-09T15:01:48;3.13;;;1.75;;
28007;SDS011;15333;50.010;20.020;2022-09-09T15:04:49;2.17;;;1.63;;
28007;SDS011;15333;50.010;20.020;2022-09-09T15:07:50;3.47;;;2.08;;
28007;SDS011;15333;50.010;20.020;2022-09-09T15:10:58;1.88;;;1.73;;
28007;SDS011;15333;50.010;20.020;2022-09-09T15:14:00;4.47;;;1.73;;
28007;SDS011;15333;50.010;20.020;2022-09-09T15:17:01;1.95;;;1.58;;
28007;SDS011;15333;50.010;20.020;2022-09-09T15:20:02;5.97;;;2.30;;
28007;SDS011;15333;50.010;20.020;2022-09-09T15:23:05;3.88;;;3.00;;
28007;SDS011;15333;50.010;20.020;2022-09-09T15:26:06;5.97;;;3.20;;
28007;SDS011;15333;50.010;20.020;2022-09-09T15:29:07;7.07;;;2.78;;
28007;SDS011;15333;50.010;20.020;2022-09-09T15:32:09;3.10;;;2.80;;
28007;SDS011;15333;50.010;20.020;2022-09-09T15:35:10;7.57;;;2.95;;
28007;SDS011;15333;50.010;20.020;2022-09-09T15:38:11;7.70;;;2.72;;
28007;SDS011;15333;50.010;20.020;2022-09-09T15:41:15;5.55;;;3.22;;
28007;SDS011;15333;50.010;20.020;2022-09-09T15:44:17;4.45;;;2.47;;
28007;SDS011;15333;50.010;20.020;2022-09-09T15:47:19;4.53;;;2.60;;
28007;SDS011;15333;50.010;20.020;2022-09-09T15:50:20;5.25;;;2.85;;
28007;SDS011;15333;50.010;20.020;2022-09-09T15:53:21;5.25;;;2.20;;
28007;SDS011;15333;50.010;20.020;2022-09-09T15:56:22;7.07;;;2.90;;
28007;SDS011;15333;50.010;20.020;2022-09-09T15:59:24;5.32;;;3.00;;
28007;SDS011;15333;50.010;20.020;2022-09-09T16:02:26;6.22;;;3.13;;
28007;SDS011;15333;50.010;20.020;2022-09-09T16:05:27;7.22;;;2.90;;
28007;SDS011;15333;50.010;20.020;2022-09-09T16:08:31;4.25;;;3.30;;
28007;SDS011;15333;50.010;20.020;2022-09-09T16:11:34;7.57;;;3.75;;
28007;SDS011;15333;50.010;20.020;2022-09-09T16:14:36;10.68;;;3.20;;
28007;SDS011;15333;50.010;20.020;2022-09-09T16:17:37;6.90;;;3.60;;
28007;SDS011;15333;50.010;20.020;2022-09-09T16:20:38;7.15;;;3.65;;
28007;SDS011;15333;50.010;20.020;2022-09-09T16:23:41;7.88;;;3.38;;
28007;SDS011;15333;50.010;20.020;2022-09-09T16:26:43;3.45;;;3.15;;
28007;SDS011;15333;50.010;20.020;2022-09-09T16:29:47;5.85;;;3.58;;
28007;SDS011;15333;50.010;20.020;2022-09-09T16:32:48;10.52;;;4.18;;
28007;SDS011;15333;50.010;20.020;2022-09-09T16:35:49;8.25;;;4.43;;
28007;SDS011;15333;50.010;20.020;2022-09-09T16:38:54;8.73;;;4.45;;
28007;SDS011;15333;50.010;20.020;2022-09-09T16:41:57;8.82;;;4.40;;
28007;SDS011;15333;50.010;20.020;2022-09-09T16:44:58;9.00;;;4.95;;
28007;SDS011;15333;50.010;20.020;2022-09-09T16:47:59;6.35;;;4.75;;
28007;SDS011;15333;50.010;20.020;2022-09-09T16:51:04;9.02;;;4.78;;
28007;SDS011;15333;50.010;20.020;2022-09-09T16:54:07;12.52;;;4.63;;
28007;SDS011;15333;50.010;20.020;2022-09-09T16:57:09;9.63;;;5.03;;
28007;SDS011;15333;50.010;20.020;2022-09-09T17:00:10;9.57;;;4.90;;
28007;SDS011;15333;50.010;20.020;2022-09-09T17:03:14;11.90;;;5.15;;
28007;SDS011;15333;50.010;20.020;2022-09-09T17:06:16;10.98;;;5.55;;
28007;SDS011;15333;50.010;20.020;2022-09-09T17:09:17;8.85;;;4.72;;
28007;SDS011;15333;50.010;20.020;2022-09-09T17:12:19;7.78;;;4.88;;
28007;SDS011;15333;50.010;20.020;2022-09-09T17:15:20;10.68;;;5.50;;
28007;SDS011;15333;50.010;20.020;2022-09-09T17:18:21;17.60;;;5.20;;
28007;SDS011;15333;50.010;20.020;2022-09-09T17:21:23;14.02;;;5.85;;
28007;SDS011;15333;50.010;20.020;2022-09-09T17:24:28;15.48;;;6.13;;
28007;SDS011;15333;50.010;20.020;2022-09-09T17:27:29;12.95;;;6.20;;
28007;SDS011;15333;50.010;20.020;2022-09-09T17:30:34;18.02;;;6.70;;
28007;SDS011;15333;50.010;20.020;2022-09-09T17:33:37;12.52;;;7.60;;
28007;SDS011;15333;50.010;20.020;2022-09-09T17:36:40;9.90;;;6.03;;
28007;SDS011;15333;50.010;20.020;2022-09-09T17:39:41;18.20;;;6.10;;
28007;SDS011;15333;50.010;20.020;2022-09-09T17:42:41;12.52;;;6.57;;
28007;SDS011;15333;50.010;20.020;2022-09-09T17:45:43;11.18;;;6.20;;
28007;SDS011;15333;50.010;20.020;2022-09-09T17:48:47;12.63;;;6.60;;
28007;SDS011;15333;50.010;20.020;2022-09-09T17:51:49;9.23;;;6.47;;
28007;SDS011;15333;50.010;20.020;2022-09-09T17:54:50;12.50;;;7.43;;
28007;SDS011;15333;50.010;20.020;2022-09-09T17:57:51;11.00;;;7.55;;
28007;SDS011;15333;50.010;20.020;2022-09-09T18:00:51;16.88;;;11.25;;
28007;SDS011;15333;50.010;20.020;2022-09-09T18:03:53;19.30;;;11.82;;
28007;SDS011;15333;50.010;20.020;2022-09-09T18:06:56;18.13;;;12.07;;
28007;SDS011;15333;50.010;20.020;2022-09-09T18:09:58;21.52;;;12.13;;
28007;SDS011;15333;50.010;20.020;2022-09-09T18:12:59;73.93;;;44.67;;
28007;SDS011;15333;50.010;20.020;2022-09-09T18:16:05;49.17;;;30.38;;
28007;SDS011;15333;50.010;20.020;2022-09-09T18:19:08;35.78;;;18.50;;
28007;SDS011;15333;50.010;20.020;2022-09-09T18:22:14;15.98;;;9.77;;
28007;SDS011;15333;50.010;20.020;2022-09-09T18:25:15;23.00;;;8.82;;
28007;SDS011;15333;50.010;20.020;2022-09-09T18:28:19;19.00;;;8.77;;
28007;SDS011;15333;50.010;20.020;2022-09-09T18:31:21;16.30;;;8.23;;
28007;SDS011;15333;50.010;20.020;2022-09-09T18:34:24;22.23;;;10.75;;
28007;SDS011;15333;50.010;20.020;2022-09-09T18:37:27;15.55;;;9.88;;
28007;SDS011;15333;50.010;20.020;2022-09-09T18:40:29;16.83;;;10.38;;
28007;SDS011;15333;50.010;20.020;2022-09-09T18:43:31;15.35;;;9.85;;
28007;SDS011;15333;50.010;20.020;2022-09-09T18:46:32;15.75;;;9.60;;
28007;SDS011;15333;50.010;20.020;2022-09-09T18:49:34;22.13;;;9.98;;
28007;SDS011;15333;50.010;20.020;2022-09-09T18:52:35;10.98;;;8.80;;
28007;SDS011;15333;50.010;20.020;2022-09-09T18:55:37;17.73;;;9.52;;
28007;SDS011;15333;50.010;20.020;2022-09-09T18:58:38;12.55;;;8.73;;
28007;SDS011;15333;50.010;20.020;2022-09-09T19:01:39;14.45;;;9.23;;
28007;SDS011;15333;50.010;20.020;2022-09-09T19:04:42;16.77;;;9.43;;
28007;SDS011;15333;50.010;20.020;2022-09-09T19:07:42;13.55;;;8.52;;
28007;SDS011;15333;50.010;20.020;2022-09-09T19:10:43;14.95;;;9.38;;
28007;SDS011;15333;50.010;20.020;2022-09-09T19:13:51;58.78;;;36.58;;
28007;SDS011;15333;50.010;20.020;2022-09-09T19:16:59;27.15;;;14.20;;
28007;SDS011;15333;50.010;20.020;2022-09-09T19:20:00;25.30;;;13.00;;
28007;SDS011;15333;50.010;20.020;2022-09-09T19:23:02;27.48;;;15.70;;
28007;SDS011;15333;50.010;20.020;2022-09-09T19:26:02;18.65;;;10.52;;
28007;SDS011;15333;50.010;20.020;2022-09-09T19:29:06;20.00;;;10.57;;
28007;SDS011;15333;50.010;20.020;2022-09-09T19:32:09;17.70;;;10.13;;
28007;SDS011;15333;50.010;20.020;2022-09-09T19:35:10;17.92;;;9.88;;
28007;SDS011;15333;50.010;20.020;2022-09-09T19:38:11;19.02;;;10.23;;
28007;SDS011;15333;50.010;20.020;2022-09-09T19:41:13;17.20;;;10.70;;
28007;SDS011;15333;50.010;20.020;2022-09-09T19:44:16;24.27;;;10.40;;
28007;SDS011;15333;50.010;20.020;2022-09-09T19:47:18;18.23;;;9.90;;
28007;SDS011;15333;50.010;20.020;2022-09-09T19:50:18;21.15;;;11.20;;